Time;durP1;ratioP1;P1;durP2;ratioP2;P2;SDS_P1;SDS_P2;PMS_P1;PMS_P2;Temp;Humidity;BMP_temperature;BMP_pressure;BME280_temperature;BME280_humidity;BME280_pressure;Samples;Min_cycle;Max_cycle;Signal;HPM_P1;HPM_P2
2021/11/13 00:08:25;;;;;;;0.20;0.10;;;15.80;99.90;;;;;;20389267;29;20197;-74
2021/11/13 00:18:29;;;;;;;0.20;0.10;;;16.10;99.90;;;;;;20387202;29;20241;-75
2021/11/13 00:29:12;;;;;;;0.20;0.10;;;16.00;99.90;;;;;;20389011;29;20191;-74
2021/11/13 00:39:18;;;;;;;0.20;0.10;;;16.00;99.90;;;;;;20392331;29;20730;-74
2021/11/13 00:49:47;;;;;;;0.20;0.10;;;16.30;99.90;;;;;;20388430;29;20250;-76
2021/11/13 00:59:53;;;;;;;0.20;0.10;;;16.30;99.90;;;;;;20452889;23;20641;-76
2021/11/13 01:09:56;;;;;;;0.20;0.10;;;16.10;99.90;;;;;;20476292;28;20204;-75
2021/11/13 01:20:01;;;;;;;0.20;0.10;;;16.40;99.90;;;;;;20470528;29;20260;-74
2021/11/13 01:30:07;;;;;;;0.20;0.10;;;16.60;99.90;;;;;;20463900;29;20206;-75
2021/11/13 01:40:16;;;;;;;0.20;0.00;;;16.50;99.90;;;;;;20461194;28;20253;-73
2021/11/13 01:50:22;;;;;;;0.20;0.10;;;16.40;99.90;;;;;;20460383;29;20248;-75
2021/11/13 02:00:32;;;;;;;0.20;0.10;;;16.60;99.90;;;;;;20429075;29;20632;-75
2021/11/13 02:10:37;;;;;;;0.20;0.10;;;16.90;99.90;;;;;;20420699;29;20221;-77
2021/11/13 02:20:43;;;;;;;0.20;0.10;;;16.40;99.90;;;;;;20420799;29;20750;-76
2021/11/13 02:30:48;;;;;;;0.20;0.10;;;16.40;99.90;;;;;;20402807;29;20296;-75
2021/11/13 02:40:56;;;;;;;0.20;0.10;;;16.30;99.90;;;;;;20570859;28;20235;-75
2021/11/13 02:51:00;;;;;;;0.20;0.00;;;16.00;99.90;;;;;;20560127;28;20694;-76
2021/11/13 03:01:07;;;;;;;0.20;0.10;;;16.00;99.90;;;;;;20559705;28;20262;-76
2021/11/13 03:11:12;;;;;;;0.20;0.10;;;16.10;99.90;;;;;;20558379;28;20210;-76
2021/11/13 03:21:17;;;;;;;0.20;0.00;;;15.60;99.90;;;;;;20549877;28;20319;-78
2021/11/13 03:31:23;;;;;;;0.20;0.10;;;15.50;99.90;;;;;;20509292;28;20215;-77
2021/11/13 03:41:30;;;;;;;0.20;0.10;;;15.40;99.90;;;;;;20519457;29;20228;-77
2021/11/13 03:51:34;;;;;;;0.20;0.03;;;15.60;99.90;;;;;;20518108;28;20193;-77
2021/11/13 04:01:38;;;;;;;0.20;0.00;;;15.50;99.90;;;;;;20522067;28;20323;-77
2021/11/13 04:11:42;;;;;;;0.20;0.10;;;15.60;99.90;;;;;;20521424;28;20291;-77
2021/11/13 04:21:47;;;;;;;0.20;0.10;;;15.40;99.90;;;;;;20503386;28;20323;-77
2021/11/13 04:31:51;;;;;;;0.20;0.10;;;15.40;99.90;;;;;;20516994;28;20197;-76
2021/11/13 04:42:00;;;;;;;0.20;0.10;;;15.40;99.90;;;;;;20490821;29;20614;-77
2021/11/13 04:52:06;;;;;;;0.20;0.10;;;15.70;99.90;;;;;;20506020;29;20284;-76
2021/11/13 05:02:11;;;;;;;0.20;0.10;;;15.80;99.90;;;;;;20488841;29;20243;-75
2021/11/13 05:12:14;;;;;;;0.20;0.10;;;16.00;99.90;;;;;;20504630;29;20281;-75
2021/11/13 05:22:19;;;;;;;0.20;0.10;;;15.80;99.90;;;;;;20503591;28;20227;-75
2021/11/13 05:32:23;;;;;;;0.20;0.00;;;15.70;99.90;;;;;;20581734;28;20266;-76
2021/11/13 05:42:28;;;;;;;0.20;0.00;;;15.60;99.90;;;;;;20564956;28;20319;-74
2021/11/13 05:52:32;;;;;;;0.20;0.00;;;15.60;99.90;;;;;;20581792;28;20215;-75
2021/11/13 06:02:36;;;;;;;0.20;0.10;;;16.10;99.90;;;;;;20579847;28;20242;-75
2021/11/13 06:12:40;;;;;;;0.20;0.10;;;16.30;99.90;;;;;;20578885;28;20207;-75
2021/11/13 06:22:45;;;;;;;0.20;0.10;;;16.30;99.90;;;;;;20578567;28;20220;-75
2021/11/13 06:32:51;;;;;;;0.20;0.10;;;16.50;99.90;;;;;;20561188;28;20219;-74
2021/11/13 06:42:56;;;;;;;0.20;0.10;;;16.50;99.90;;;;;;20577184;28;20771;-74
2021/11/13 06:53:01;;;;;;;0.20;0.10;;;16.30;99.90;;;;;;20576698;28;20287;-76
2021/11/13 07:03:06;;;;;;;0.20;0.10;;;16.10;99.90;;;;;;20575258;28;20232;-75
2021/11/13 07:13:09;;;;;;;0.20;0.10;;;16.00;99.90;;;;;;20558151;28;20290;-75
2021/11/13 07:23:14;;;;;;;0.20;0.10;;;16.20;99.90;;;;;;20574458;28;20628;-75
2021/11/13 07:33:18;;;;;;;0.20;0.10;;;16.60;99.90;;;;;;20573458;28;20192;-75
2021/11/13 07:43:23;;;;;;;0.20;0.10;;;16.90;99.90;;;;;;20573674;28;20223;-75
2021/11/13 07:53:28;;;;;;;0.20;0.10;;;17.20;99.90;;;;;;20576472;28;20676;-78
2021/11/13 08:03:33;;;;;;;0.20;0.10;;;17.30;99.90;;;;;;20527129;28;20243;-75
2021/11/13 08:13:39;;;;;;;0.20;0.10;;;17.40;99.90;;;;;;20507825;29;20299;-75
2021/11/13 08:23:44;;;;;;;0.20;0.10;;;17.50;99.90;;;;;;20505855;29;20236;-75
2021/11/13 08:33:48;;;;;;;0.20;0.00;;;17.90;99.90;;;;;;20507111;29;20561;-77
2021/11/13 08:43:53;;;;;;;0.20;0.10;;;18.10;99.90;;;;;;20505110;29;20263;-77
2021/11/13 08:53:56;;;;;;;0.20;0.00;;;18.30;99.90;;;;;;20503699;29;20201;-77
2021/11/13 09:04:02;;;;;;;0.20;0.10;;;18.50;99.90;;;;;;20501013;29;20247;-76
2021/11/13 09:14:10;;;;;;;0.20;0.10;;;18.80;99.90;;;;;;20499146;28;20273;-79
2021/11/13 09:24:15;;;;;;;0.20;0.10;;;19.00;99.90;;;;;;20472302;29;20233;-79
2021/11/13 09:34:21;;;;;;;0.20;0.10;;;19.30;99.90;;;;;;20423808;29;20318;-78
2021/11/13 09:44:26;;;;;;;0.20;0.00;;;19.70;99.90;;;;;;20455252;29;20228;-76
2021/11/13 09:54:30;;;;;;;0.20;0.10;;;19.50;99.90;;;;;;20467005;29;20267;-80
2021/11/13 10:04:35;;;;;;;0.20;0.00;;;19.90;99.90;;;;;;20424046;29;20277;-79
2021/11/13 10:14:41;;;;;;;0.20;0.10;;;20.40;99.90;;;;;;20433534;29;20193;-79
2021/11/13 10:24:49;;;;;;;0.20;0.10;;;19.80;99.90;;;;;;20458137;29;20220;-79
2021/11/13 10:34:53;;;;;;;0.20;0.10;;;19.30;99.90;;;;;;20460975;29;20561;-79
2021/11/13 10:45:00;;;;;;;0.20;0.00;;;20.00;99.90;;;;;;20461960;29;20325;-78
2021/11/13 10:55:05;;;;;;;0.20;0.00;;;21.10;99.90;;;;;;20449277;29;20198;-79
2021/11/13 11:05:44;;;;;;;0.20;0.00;;;21.40;99.90;;;;;;20403415;29;20792;-75
2021/11/13 11:15:48;;;;;;;0.20;0.10;;;21.90;99.90;;;;;;20481169;29;20200;-78
2021/11/13 11:26:13;;;;;;;0.20;0.00;;;22.90;99.90;;;;;;20453837;29;20575;-76
2021/11/13 11:36:30;;;;;;;0.20;0.00;;;21.40;99.90;;;;;;20452415;29;20212;-79
2021/11/13 11:46:35;;;;;;;0.20;0.07;;;21.90;99.90;;;;;;20447583;29;20248;-80
2021/11/13 11:56:39;;;;;;;0.20;0.00;;;21.50;99.90;;;;;;20448862;29;20219;-76
2021/11/13 12:06:48;;;;;;;0.20;0.00;;;21.30;99.90;;;;;;20421376;29;20651;-79
2021/11/13 12:16:52;;;;;;;0.20;0.03;;;20.90;99.90;;;;;;20476254;29;20228;-73
2021/11/13 12:27:01;;;;;;;0.20;0.00;;;20.40;99.90;;;;;;20483052;29;20588;-81
2021/11/13 12:37:08;;;;;;;0.20;0.07;;;20.10;99.90;;;;;;20467356;29;20218;-80
2021/11/13 12:47:18;;;;;;;0.20;0.10;;;20.20;99.90;;;;;;20463516;29;20671;-80
2021/11/13 12:57:26;;;;;;;0.20;0.10;;;20.60;99.90;;;;;;20435700;28;20216;-78
2021/11/13 13:07:31;;;;;;;0.20;0.10;;;20.30;99.90;;;;;;20490531;29;20228;-81
2021/11/13 13:17:37;;;;;;;0.20;0.10;;;20.10;99.90;;;;;;20434850;29;20320;-78
2021/11/13 13:27:42;;;;;;;0.20;0.10;;;20.60;99.90;;;;;;20425130;29;20197;-77
2021/11/13 13:37:53;;;;;;;0.20;0.10;;;20.30;99.90;;;;;;20405912;29;20270;-80
2021/11/13 13:48:00;;;;;;;0.20;0.10;;;19.90;99.90;;;;;;20423683;29;20221;-83
2021/11/13 14:09:22;;;;;;;0.20;0.00;;;19.80;99.90;;;;;;20487666;28;20298;-79
2021/11/13 14:19:26;;;;;;;0.20;0.10;;;21.70;99.90;;;;;;20496517;29;20231;-79
2021/11/13 14:29:31;;;;;;;0.20;0.10;;;19.90;99.90;;;;;;20499326;29;20198;-83
2021/11/13 14:39:38;;;;;;;0.20;0.10;;;19.20;99.90;;;;;;20470228;29;20238;-74
2021/11/13 14:49:56;;;;;;;0.20;0.00;;;19.00;99.90;;;;;;20438682;28;20442;-78
2021/11/13 15:00:00;;;;;;;0.20;0.10;;;18.70;99.90;;;;;;20491138;29;20246;-77
2021/11/13 15:10:12;;;;;;;0.20;0.00;;;18.60;99.90;;;;;;20472895;29;20225;-78
2021/11/13 15:20:19;;;;;;;0.20;0.10;;;18.30;99.90;;;;;;20490378;29;20280;-76
2021/11/13 15:30:37;;;;;;;0.20;0.10;;;18.40;99.90;;;;;;20490773;29;20205;-77
2021/11/13 15:40:40;;;;;;;0.30;0.30;;;18.40;99.90;;;;;;20469919;28;20252;-75
2021/11/13 15:51:04;;;;;;;0.20;0.10;;;18.50;99.90;;;;;;20475334;29;20307;-80
2021/11/13 16:01:08;;;;;;;0.20;0.00;;;18.20;99.90;;;;;;20409431;29;20231;-75
2021/11/13 16:11:13;;;;;;;0.20;0.10;;;18.00;99.90;;;;;;20488935;28;20363;-77
2021/11/13 16:21:17;;;;;;;0.20;0.10;;;17.60;99.90;;;;;;20451948;28;20551;-77
2021/11/13 16:31:22;;;;;;;0.20;0.00;;;17.60;99.90;;;;;;20420523;29;20221;-76
2021/11/13 16:41:26;;;;;;;0.20;0.00;;;17.50;99.90;;;;;;20406087;29;20228;-75
2021/11/13 16:51:35;;;;;;;0.20;0.10;;;17.60;99.90;;;;;;20421186;29;20295;-75
2021/11/13 17:01:41;;;;;;;0.20;0.10;;;17.50;99.90;;;;;;20420853;29;20245;-74
2021/11/13 17:11:47;;;;;;;0.20;0.10;;;17.30;99.90;;;;;;20421045;29;20305;-74
2021/11/13 17:21:51;;;;;;;0.20;0.10;;;17.20;99.90;;;;;;20418867;29;20228;-72
2021/11/13 17:31:57;;;;;;;0.20;0.10;;;17.00;99.90;;;;;;20403272;29;20368;-76
2021/11/13 17:42:00;;;;;;;0.20;0.10;;;17.00;99.90;;;;;;20436712;29;20213;-75
2021/11/13 17:52:06;;;;;;;0.20;0.10;;;16.90;99.90;;;;;;20495573;29;20216;-76
2021/11/13 18:02:10;;;;;;;0.20;0.00;;;16.90;99.90;;;;;;20463043;29;20283;-75
2021/11/13 18:12:16;;;;;;;0.20;0.10;;;16.60;99.90;;;;;;20497127;29;20197;-77
2021/11/13 18:22:20;;;;;;;0.20;0.00;;;16.60;99.90;;;;;;20492764;29;20220;-77
2021/11/13 18:32:25;;;;;;;0.20;0.10;;;16.30;99.90;;;;;;20497390;29;20309;-75
2021/11/13 18:42:28;;;;;;;0.20;0.10;;;16.00;99.90;;;;;;20437061;29;20243;-76
2021/11/13 18:52:34;;;;;;;0.20;0.10;;;16.00;99.90;;;;;;20419264;29;20217;-78
2021/11/13 19:02:37;;;;;;;0.20;0.10;;;15.90;99.90;;;;;;20415567;29;20237;-76
2021/11/13 19:12:43;;;;;;;0.20;0.07;;;15.90;99.90;;;;;;20398349;29;20653;-86
2021/11/13 19:22:49;;;;;;;0.20;0.10;;;15.90;99.90;;;;;;20414720;29;20300;-74
2021/11/13 19:32:58;;;;;;;0.20;0.10;;;15.90;99.90;;;;;;20418432;29;20284;-76
2021/11/13 19:43:02;;;;;;;0.20;0.10;;;16.00;99.90;;;;;;20414660;29;20787;-76
2021/11/13 19:53:07;;;;;;;0.20;0.10;;;16.00;99.90;;;;;;20414044;29;20308;-76
2021/11/13 20:03:13;;;;;;;0.20;0.10;;;16.00;99.90;;;;;;20447900;28;20550;-74
2021/11/13 20:13:22;;;;;;;0.20;0.10;;;15.80;99.90;;;;;;20477855;29;20227;-75
2021/11/13 20:23:26;;;;;;;0.20;0.00;;;15.70;99.90;;;;;;20458550;29;20315;-75
2021/11/13 20:33:32;;;;;;;0.20;0.10;;;15.40;99.90;;;;;;20444399;29;20297;-74
2021/11/13 20:43:36;;;;;;;0.20;0.00;;;15.30;99.90;;;;;;20446746;29;20225;-76
2021/11/13 20:53:41;;;;;;;0.20;0.10;;;15.10;99.90;;;;;;20426970;29;20194;-76
2021/11/13 21:03:45;;;;;;;0.20;0.10;;;15.00;99.90;;;;;;20453233;29;20714;-74
2021/11/13 21:13:50;;;;;;;0.20;0.07;;;14.90;99.90;;;;;;20461436;29;20232;-75
2021/11/13 21:23:54;;;;;;;0.20;0.00;;;14.90;99.90;;;;;;20561122;28;20290;-75
2021/11/13 21:33:59;;;;;;;0.20;0.10;;;14.90;99.90;;;;;;20575135;28;20205;-75
2021/11/13 21:44:03;;;;;;;0.20;0.17;;;14.60;99.90;;;;;;20458518;29;20231;-75
2021/11/13 21:54:09;;;;;;;0.20;0.10;;;14.30;99.90;;;;;;20457665;29;20205;-75
2021/11/13 22:04:16;;;;;;;0.20;0.10;;;14.30;99.90;;;;;;20456739;28;20284;-75
2021/11/13 22:14:21;;;;;;;0.20;0.00;;;14.20;99.90;;;;;;20457746;29;20346;-78
2021/11/13 22:24:25;;;;;;;0.20;0.10;;;14.20;99.90;;;;;;20455742;28;20620;-75
2021/11/13 22:34:31;;;;;;;0.20;0.00;;;14.20;99.90;;;;;;20438612;29;20611;-74
2021/11/13 22:44:35;;;;;;;0.20;0.10;;;14.20;99.90;;;;;;20454640;29;20616;-74
2021/11/13 22:54:40;;;;;;;0.20;0.10;;;14.30;99.90;;;;;;20522606;28;20538;-75
2021/11/13 23:04:46;;;;;;;0.20;0.10;;;14.40;99.90;;;;;;20527778;28;20228;-76
2021/11/13 23:14:52;;;;;;;0.20;0.00;;;14.80;99.90;;;;;;20458385;29;20284;-75
2021/11/13 23:24:56;;;;;;;0.20;0.10;;;15.30;99.90;;;;;;20501065;29;20319;-76
2021/11/13 23:35:01;;;;;;;0.20;0.10;;;15.50;99.90;;;;;;20500500;28;20220;-74
2021/11/13 23:45:07;;;;;;;0.20;0.10;;;15.40;99.90;;;;;;20511217;29;20235;-77
2021/11/13 23:55:14;;;;;;;0.20;0.10;;;15.40;99.90;;;;;;20509280;29;20193;-74
